Terminal Aerodrome Forecast
Issued by NWS Grand Forks, ND

Home | Current Version | Previous Version | Graphics & Text | Print | Product List | Glossary On
Versions: 1 2 3 4 5 6 7 8 9 10 11 12 13
000
FTUS43 KFGF 240300 AAA
TAFGFK
TAF AMD
KGFK 240307Z 2403/2424 32011KT P6SM -SN OVC009
      TEMPO 2403/2406 5SM -SN
     FM240900 VRB06KT P6SM OVC008
     FM241800 20007KT P6SM OVC016=

USA.gov is the U.S. government's official web portal to all federal, state and local government web resources and services.